This is the latest recevied weather packets stored in our database for station/object DL2RXE-13. If no packets are shown the sender has not sent any weather packets the latest 10 day(s).
| Time | Temp. | Humidity | Pressure | Rain* | Wind** | Luminosity | Snow |
|---|---|---|---|---|---|---|---|
| 1777528848 | 7.22° C | 62% | 1032.8 hPa | 0 mm | - | 130 W/m² | - |
| 1777527647 | 6.11° C | 70% | 1032.7 hPa | 0 mm | - | 108 W/m² | - |
| 1777527051 | 5° C | 72% | 1032.7 hPa | 0 mm | - | 74 W/m² | - |
| 1777526446 | 3.89° C | 75% | 1032.7 hPa | 0 mm | - | 55 W/m² | - |
| 1777523451 | -1.11° C | 84% | 1032.6 hPa | 0 mm | - | 23 W/m² | - |
| 1777521650 | -2.78° C | 89% | 1032.4 hPa | 0 mm | - | 6 W/m² | - |
| 1777520446 | -2.78° C | 89% | 1032.2 hPa | 0 mm | - | 0 W/m² | - |
| 1777518050 | -2.22° C | 86% | 1032.3 hPa | 0 mm | - | 0 W/m² | - |
| 1777516241 | -2.22° C | 87% | 1032.2 hPa | 0 mm | - | 0 W/m² | - |
| 1777513848 | -2.22° C | 85% | 1032.1 hPa | 0 mm | - | 0 W/m² | - |
| 1777509646 | -0.56° C | 81% | 1031.7 hPa | 0 mm | - | 0 W/m² | - |
| 1777509062 | -0.56° C | 81% | 1031.6 hPa | 0 mm | - | 0 W/m² | - |
| 1777506645 | -1.11° C | 83% | 1031.7 hPa | 0 mm | - | 0 W/m² | - |
| 1777506042 | -1.11° C | 83% | 1031.6 hPa | 0 mm | - | 0 W/m² | - |
| 1777502445 | 0.56° C | 76% | 1031.6 hPa | 0 mm | - | 0 W/m² | - |
| 1777501843 | 0.56° C | 77% | 1031.4 hPa | 0 mm | - | 0 W/m² | - |
| 1777501287 | 0° C | 80% | 1031.5 hPa | 0 mm | - | 0 W/m² | - |
| 1777494046 | 3.89° C | 69% | 1031 hPa | 0 mm | - | 0 W/m² | - |
| 1777489828 | 7.22° C | 52% | 1030.5 hPa | 0 mm | - | 0 W/m² | - |
| 1777484430 | 11.67° C | 38% | 1029.8 hPa | 0 mm | - | 29 W/m² | - |
| 1777483848 | 11.67° C | 37% | 1029.6 hPa | 0 mm | - | 35 W/m² | - |
| 1777481428 | 12.78° C | 36% | 1029.4 hPa | 0 mm | - | 100 W/m² | - |
| 1777479028 | 13.33° C | 35% | 1029.5 hPa | 0 mm | - | 200 W/m² | - |
| 1777477249 | 13.33° C | 35% | 1029.4 hPa | 0 mm | - | 280 W/m² | - |
| 1777473629 | 13.33° C | 36% | 1029.6 hPa | 0 mm | - | 410 W/m² | - |
* Rain latest hour (hover to see other rain measurements)
** Current wind speed in m/s (hover to see current wind gust speed)